sensor_id;sensor_type;location;lat;lon;timestamp;P1;durP1;ratioP1;P2;durP2;ratioP2
5890;SDS011;2971;52.420;7.080;2023-04-28T00:02:13;10.07;;;9.07;;
5890;SDS011;2971;52.420;7.080;2023-04-28T00:04:38;9.43;;;8.53;;
5890;SDS011;2971;52.420;7.080;2023-04-28T00:07:04;9.60;;;8.50;;
5890;SDS011;2971;52.420;7.080;2023-04-28T00:09:30;10.20;;;9.20;;
5890;SDS011;2971;52.420;7.080;2023-04-28T00:11:55;12.07;;;9.87;;
5890;SDS011;2971;52.420;7.080;2023-04-28T00:14:20;10.70;;;9.47;;
5890;SDS011;2971;52.420;7.080;2023-04-28T00:16:46;9.93;;;8.93;;
5890;SDS011;2971;52.420;7.080;2023-04-28T00:19:11;10.37;;;9.20;;
5890;SDS011;2971;52.420;7.080;2023-04-28T00:21:37;10.60;;;9.50;;
5890;SDS011;2971;52.420;7.080;2023-04-28T00:24:02;10.03;;;9.13;;
5890;SDS011;2971;52.420;7.080;2023-04-28T00:26:27;10.30;;;9.23;;
5890;SDS011;2971;52.420;7.080;2023-04-28T00:28:53;10.47;;;9.33;;
5890;SDS011;2971;52.420;7.080;2023-04-28T00:31:18;12.17;;;9.40;;
5890;SDS011;2971;52.420;7.080;2023-04-28T00:33:44;10.80;;;9.40;;
5890;SDS011;2971;52.420;7.080;2023-04-28T00:36:09;10.57;;;9.47;;
5890;SDS011;2971;52.420;7.080;2023-04-28T00:38:35;10.33;;;9.33;;
5890;SDS011;2971;52.420;7.080;2023-04-28T00:41:01;11.17;;;10.10;;
5890;SDS011;2971;52.420;7.080;2023-04-28T00:43:27;10.47;;;9.37;;
5890;SDS011;2971;52.420;7.080;2023-04-28T00:45:53;12.70;;;9.67;;
5890;SDS011;2971;52.420;7.080;2023-04-28T00:48:18;11.70;;;9.83;;
5890;SDS011;2971;52.420;7.080;2023-04-28T00:50:44;10.63;;;9.63;;
5890;SDS011;2971;52.420;7.080;2023-04-28T00:53:10;11.93;;;9.53;;
5890;SDS011;2971;52.420;7.080;2023-04-28T00:55:36;10.80;;;9.70;;
5890;SDS011;2971;52.420;7.080;2023-04-28T00:58:02;12.17;;;9.90;;
5890;SDS011;2971;52.420;7.080;2023-04-28T01:00:28;11.07;;;10.00;;
5890;SDS011;2971;52.420;7.080;2023-04-28T01:02:54;10.17;;;9.17;;
5890;SDS011;2971;52.420;7.080;2023-04-28T01:05:19;10.80;;;9.60;;
5890;SDS011;2971;52.420;7.080;2023-04-28T01:07:45;10.77;;;9.57;;
5890;SDS011;2971;52.420;7.080;2023-04-28T01:10:10;10.60;;;9.50;;
5890;SDS011;2971;52.420;7.080;2023-04-28T01:12:36;11.97;;;9.90;;
5890;SDS011;2971;52.420;7.080;2023-04-28T01:15:01;10.27;;;9.27;;
5890;SDS011;2971;52.420;7.080;2023-04-28T01:17:27;11.00;;;9.87;;
5890;SDS011;2971;52.420;7.080;2023-04-28T01:19:53;10.97;;;9.97;;
5890;SDS011;2971;52.420;7.080;2023-04-28T01:22:18;11.93;;;9.97;;
5890;SDS011;2971;52.420;7.080;2023-04-28T01:24:43;10.53;;;9.43;;
5890;SDS011;2971;52.420;7.080;2023-04-28T01:27:09;11.93;;;9.57;;
5890;SDS011;2971;52.420;7.080;2023-04-28T01:29:35;10.57;;;9.50;;
5890;SDS011;2971;52.420;7.080;2023-04-28T01:32:01;10.43;;;9.37;;
5890;SDS011;2971;52.420;7.080;2023-04-28T01:34:26;12.07;;;9.80;;
5890;SDS011;2971;52.420;7.080;2023-04-28T01:36:51;10.57;;;9.57;;
5890;SDS011;2971;52.420;7.080;2023-04-28T01:39:18;10.87;;;9.70;;
5890;SDS011;2971;52.420;7.080;2023-04-28T01:41:43;10.97;;;9.83;;
5890;SDS011;2971;52.420;7.080;2023-04-28T01:44:09;11.27;;;9.47;;
5890;SDS011;2971;52.420;7.080;2023-04-28T01:46:35;10.93;;;9.80;;
5890;SDS011;2971;52.420;7.080;2023-04-28T01:49:01;11.00;;;9.20;;
5890;SDS011;2971;52.420;7.080;2023-04-28T01:51:26;10.80;;;9.50;;
5890;SDS011;2971;52.420;7.080;2023-04-28T01:53:52;11.33;;;9.93;;
5890;SDS011;2971;52.420;7.080;2023-04-28T01:56:17;11.10;;;10.00;;
5890;SDS011;2971;52.420;7.080;2023-04-28T01:58:42;11.17;;;9.70;;
5890;SDS011;2971;52.420;7.080;2023-04-28T02:01:08;11.53;;;9.83;;
5890;SDS011;2971;52.420;7.080;2023-04-28T02:03:33;11.37;;;9.67;;
5890;SDS011;2971;52.420;7.080;2023-04-28T02:05:59;11.80;;;10.60;;
5890;SDS011;2971;52.420;7.080;2023-04-28T02:08:24;10.87;;;9.83;;
5890;SDS011;2971;52.420;7.080;2023-04-28T02:10:50;11.60;;;10.00;;
5890;SDS011;2971;52.420;7.080;2023-04-28T02:13:15;11.10;;;9.90;;
5890;SDS011;2971;52.420;7.080;2023-04-28T02:15:41;11.13;;;10.03;;
5890;SDS011;2971;52.420;7.080;2023-04-28T02:18:07;10.77;;;9.70;;
5890;SDS011;2971;52.420;7.080;2023-04-28T02:20:32;11.03;;;9.90;;
5890;SDS011;2971;52.420;7.080;2023-04-28T02:22:58;10.67;;;9.40;;
5890;SDS011;2971;52.420;7.080;2023-04-28T02:25:23;10.80;;;9.77;;
5890;SDS011;2971;52.420;7.080;2023-04-28T02:27:49;11.13;;;9.73;;
5890;SDS011;2971;52.420;7.080;2023-04-28T02:30:14;10.40;;;9.40;;
5890;SDS011;2971;52.420;7.080;2023-04-28T02:32:40;9.67;;;8.77;;
5890;SDS011;2971;52.420;7.080;2023-04-28T02:35:05;12.93;;;9.70;;
5890;SDS011;2971;52.420;7.080;2023-04-28T02:37:31;10.80;;;9.70;;
5890;SDS011;2971;52.420;7.080;2023-04-28T02:39:57;10.50;;;9.47;;
5890;SDS011;2971;52.420;7.080;2023-04-28T02:42:22;11.23;;;10.03;;
5890;SDS011;2971;52.420;7.080;2023-04-28T02:44:47;10.27;;;9.13;;
5890;SDS011;2971;52.420;7.080;2023-04-28T02:47:13;9.70;;;8.70;;
5890;SDS011;2971;52.420;7.080;2023-04-28T02:49:38;10.30;;;9.20;;
5890;SDS011;2971;52.420;7.080;2023-04-28T02:52:04;10.77;;;8.73;;
5890;SDS011;2971;52.420;7.080;2023-04-28T02:54:29;11.67;;;8.90;;
5890;SDS011;2971;52.420;7.080;2023-04-28T02:56:55;9.60;;;8.70;;
5890;SDS011;2971;52.420;7.080;2023-04-28T02:59:21;10.00;;;8.47;;
5890;SDS011;2971;52.420;7.080;2023-04-28T03:01:47;10.27;;;8.20;;
5890;SDS011;2971;52.420;7.080;2023-04-28T03:04:13;10.37;;;8.50;;
5890;SDS011;2971;52.420;7.080;2023-04-28T03:06:39;9.87;;;7.83;;
5890;SDS011;2971;52.420;7.080;2023-04-28T03:09:05;9.47;;;8.47;;
5890;SDS011;2971;52.420;7.080;2023-04-28T03:11:30;10.77;;;8.00;;
5890;SDS011;2971;52.420;7.080;2023-04-28T03:13:56;8.53;;;7.73;;
5890;SDS011;2971;52.420;7.080;2023-04-28T03:16:21;9.80;;;7.47;;
5890;SDS011;2971;52.420;7.080;2023-04-28T03:18:47;8.30;;;7.27;;
5890;SDS011;2971;52.420;7.080;2023-04-28T03:21:12;8.67;;;7.53;;
5890;SDS011;2971;52.420;7.080;2023-04-28T03:23:38;8.13;;;7.37;;
5890;SDS011;2971;52.420;7.080;2023-04-28T03:26:03;9.40;;;7.57;;
5890;SDS011;2971;52.420;7.080;2023-04-28T03:28:28;9.20;;;7.43;;
5890;SDS011;2971;52.420;7.080;2023-04-28T03:30:54;10.47;;;7.40;;
5890;SDS011;2971;52.420;7.080;2023-04-28T03:33:20;8.50;;;7.60;;
5890;SDS011;2971;52.420;7.080;2023-04-28T03:35:45;8.33;;;7.53;;
5890;SDS011;2971;52.420;7.080;2023-04-28T03:38:11;8.20;;;7.40;;
5890;SDS011;2971;52.420;7.080;2023-04-28T03:40:36;9.30;;;7.27;;
5890;SDS011;2971;52.420;7.080;2023-04-28T03:43:02;9.03;;;7.73;;
5890;SDS011;2971;52.420;7.080;2023-04-28T03:45:27;8.17;;;7.10;;
5890;SDS011;2971;52.420;7.080;2023-04-28T03:47:53;8.00;;;7.27;;
5890;SDS011;2971;52.420;7.080;2023-04-28T03:50:18;7.63;;;6.87;;
5890;SDS011;2971;52.420;7.080;2023-04-28T03:52:44;9.03;;;6.90;;
5890;SDS011;2971;52.420;7.080;2023-04-28T03:55:09;10.83;;;7.30;;
5890;SDS011;2971;52.420;7.080;2023-04-28T03:57:34;8.07;;;7.17;;
5890;SDS011;2971;52.420;7.080;2023-04-28T04:00:00;10.23;;;7.20;;
5890;SDS011;2971;52.420;7.080;2023-04-28T04:02:25;8.40;;;7.60;;
5890;SDS011;2971;52.420;7.080;2023-04-28T04:04:51;8.50;;;7.10;;
5890;SDS011;2971;52.420;7.080;2023-04-28T04:07:16;7.90;;;6.80;;
5890;SDS011;2971;52.420;7.080;2023-04-28T04:09:42;9.77;;;7.00;;
5890;SDS011;2971;52.420;7.080;2023-04-28T04:12:07;7.90;;;6.87;;
5890;SDS011;2971;52.420;7.080;2023-04-28T04:14:33;9.20;;;7.20;;
5890;SDS011;2971;52.420;7.080;2023-04-28T04:16:58;8.17;;;6.50;;
5890;SDS011;2971;52.420;7.080;2023-04-28T04:19:23;9.37;;;7.17;;
5890;SDS011;2971;52.420;7.080;2023-04-28T04:21:50;7.53;;;6.83;;
5890;SDS011;2971;52.420;7.080;2023-04-28T04:24:16;8.47;;;6.90;;
5890;SDS011;2971;52.420;7.080;2023-04-28T04:26:42;9.77;;;7.07;;
5890;SDS011;2971;52.420;7.080;2023-04-28T04:29:07;9.90;;;7.57;;
5890;SDS011;2971;52.420;7.080;2023-04-28T04:31:32;10.13;;;7.13;;
5890;SDS011;2971;52.420;7.080;2023-04-28T04:33:58;9.70;;;7.30;;
5890;SDS011;2971;52.420;7.080;2023-04-28T04:36:23;9.33;;;7.10;;
5890;SDS011;2971;52.420;7.080;2023-04-28T04:38:49;9.30;;;6.90;;
5890;SDS011;2971;52.420;7.080;2023-04-28T04:41:14;7.67;;;6.87;;
5890;SDS011;2971;52.420;7.080;2023-04-28T04:43:39;9.60;;;6.37;;
5890;SDS011;2971;52.420;7.080;2023-04-28T04:46:05;8.80;;;7.03;;
5890;SDS011;2971;52.420;7.080;2023-04-28T04:48:31;9.43;;;6.67;;
5890;SDS011;2971;52.420;7.080;2023-04-28T04:50:56;8.13;;;6.80;;
5890;SDS011;2971;52.420;7.080;2023-04-28T04:53:22;8.10;;;6.67;;
5890;SDS011;2971;52.420;7.080;2023-04-28T04:55:47;7.83;;;6.43;;
5890;SDS011;2971;52.420;7.080;2023-04-28T04:58:13;9.27;;;6.60;;
5890;SDS011;2971;52.420;7.080;2023-04-28T05:00:38;8.23;;;7.37;;
5890;SDS011;2971;52.420;7.080;2023-04-28T05:03:04;7.80;;;6.60;;
5890;SDS011;2971;52.420;7.080;2023-04-28T05:05:30;8.77;;;6.57;;
5890;SDS011;2971;52.420;7.080;2023-04-28T05:07:56;7.70;;;6.50;;
5890;SDS011;2971;52.420;7.080;2023-04-28T05:10:23;9.03;;;6.80;;
5890;SDS011;2971;52.420;7.080;2023-04-28T05:12:48;7.00;;;6.30;;
5890;SDS011;2971;52.420;7.080;2023-04-28T05:15:14;9.47;;;6.60;;
5890;SDS011;2971;52.420;7.080;2023-04-28T05:17:40;9.53;;;6.60;;
5890;SDS011;2971;52.420;7.080;2023-04-28T05:20:05;8.23;;;6.47;;
5890;SDS011;2971;52.420;7.080;2023-04-28T05:22:31;7.93;;;6.57;;
5890;SDS011;2971;52.420;7.080;2023-04-28T05:24:57;7.50;;;6.70;;
5890;SDS011;2971;52.420;7.080;2023-04-28T05:27:22;7.57;;;6.00;;
5890;SDS011;2971;52.420;7.080;2023-04-28T05:29:48;7.97;;;6.50;;
5890;SDS011;2971;52.420;7.080;2023-04-28T05:32:13;7.20;;;6.47;;
5890;SDS011;2971;52.420;7.080;2023-04-28T05:34:38;9.90;;;6.90;;
5890;SDS011;2971;52.420;7.080;2023-04-28T05:37:04;8.83;;;6.63;;
5890;SDS011;2971;52.420;7.080;2023-04-28T05:39:29;10.67;;;7.43;;
5890;SDS011;2971;52.420;7.080;2023-04-28T05:41:55;7.23;;;6.50;;
5890;SDS011;2971;52.420;7.080;2023-04-28T05:44:24;10.63;;;7.07;;
5890;SDS011;2971;52.420;7.080;2023-04-28T05:46:49;7.20;;;6.40;;
5890;SDS011;2971;52.420;7.080;2023-04-28T05:49:15;9.17;;;6.83;;
5890;SDS011;2971;52.420;7.080;2023-04-28T05:51:40;8.87;;;6.37;;
5890;SDS011;2971;52.420;7.080;2023-04-28T05:54:06;7.77;;;6.70;;
5890;SDS011;2971;52.420;7.080;2023-04-28T05:56:32;10.33;;;6.70;;
5890;SDS011;2971;52.420;7.080;2023-04-28T05:58:57;8.10;;;6.63;;
5890;SDS011;2971;52.420;7.080;2023-04-28T06:01:25;7.93;;;6.70;;
5890;SDS011;2971;52.420;7.080;2023-04-28T06:03:50;7.70;;;6.77;;
5890;SDS011;2971;52.420;7.080;2023-04-28T06:06:17;7.87;;;7.17;;
5890;SDS011;2971;52.420;7.080;2023-04-28T06:08:43;9.23;;;7.20;;
5890;SDS011;2971;52.420;7.080;2023-04-28T06:11:08;8.60;;;7.33;;
5890;SDS011;2971;52.420;7.080;2023-04-28T06:13:33;11.03;;;7.63;;
5890;SDS011;2971;52.420;7.080;2023-04-28T06:15:59;9.47;;;7.83;;
5890;SDS011;2971;52.420;7.080;2023-04-28T06:18:24;9.77;;;7.73;;
5890;SDS011;2971;52.420;7.080;2023-04-28T06:20:51;11.47;;;8.20;;
5890;SDS011;2971;52.420;7.080;2023-04-28T06:23:16;10.43;;;7.70;;
5890;SDS011;2971;52.420;7.080;2023-04-28T06:25:41;10.73;;;8.17;;
5890;SDS011;2971;52.420;7.080;2023-04-28T06:28:07;8.50;;;7.37;;
5890;SDS011;2971;52.420;7.080;2023-04-28T06:30:32;10.47;;;7.87;;
5890;SDS011;2971;52.420;7.080;2023-04-28T06:32:58;9.60;;;8.40;;
5890;SDS011;2971;52.420;7.080;2023-04-28T06:35:24;10.17;;;7.83;;
5890;SDS011;2971;52.420;7.080;2023-04-28T06:37:49;8.60;;;7.60;;
5890;SDS011;2971;52.420;7.080;2023-04-28T06:40:15;9.60;;;8.03;;
5890;SDS011;2971;52.420;7.080;2023-04-28T06:42:41;8.67;;;7.77;;
5890;SDS011;2971;52.420;7.080;2023-04-28T06:45:06;8.17;;;7.37;;
5890;SDS011;2971;52.420;7.080;2023-04-28T06:47:32;9.07;;;7.60;;
5890;SDS011;2971;52.420;7.080;2023-04-28T06:49:58;8.70;;;7.80;;
5890;SDS011;2971;52.420;7.080;2023-04-28T06:52:23;9.17;;;7.70;;
5890;SDS011;2971;52.420;7.080;2023-04-28T06:54:49;9.60;;;7.70;;
5890;SDS011;2971;52.420;7.080;2023-04-28T06:57:15;10.03;;;7.43;;
5890;SDS011;2971;52.420;7.080;2023-04-28T06:59:40;8.83;;;7.93;;
5890;SDS011;2971;52.420;7.080;2023-04-28T07:02:08;12.37;;;8.03;;
5890;SDS011;2971;52.420;7.080;2023-04-28T07:04:34;9.93;;;8.10;;
5890;SDS011;2971;52.420;7.080;2023-04-28T07:07:00;10.50;;;7.83;;
5890;SDS011;2971;52.420;7.080;2023-04-28T07:09:25;11.23;;;7.73;;
5890;SDS011;2971;52.420;7.080;2023-04-28T07:11:50;10.13;;;7.83;;
5890;SDS011;2971;52.420;7.080;2023-04-28T07:14:16;11.13;;;7.97;;
5890;SDS011;2971;52.420;7.080;2023-04-28T07:16:42;10.73;;;8.10;;
5890;SDS011;2971;52.420;7.080;2023-04-28T07:19:07;10.37;;;7.67;;
5890;SDS011;2971;52.420;7.080;2023-04-28T07:21:32;9.80;;;7.97;;
5890;SDS011;2971;52.420;7.080;2023-04-28T07:23:58;13.27;;;8.03;;
5890;SDS011;2971;52.420;7.080;2023-04-28T07:26:24;9.13;;;8.17;;
5890;SDS011;2971;52.420;7.080;2023-04-28T07:28:49;11.60;;;8.17;;
5890;SDS011;2971;52.420;7.080;2023-04-28T07:31:15;11.33;;;8.87;;
5890;SDS011;2971;52.420;7.080;2023-04-28T07:33:41;9.63;;;8.43;;
5890;SDS011;2971;52.420;7.080;2023-04-28T07:36:06;10.67;;;8.97;;
5890;SDS011;2971;52.420;7.080;2023-04-28T07:38:35;10.97;;;8.30;;
5890;SDS011;2971;52.420;7.080;2023-04-28T07:41:04;16.00;;;9.07;;
5890;SDS011;2971;52.420;7.080;2023-04-28T07:43:30;10.20;;;8.23;;
5890;SDS011;2971;52.420;7.080;2023-04-28T07:45:55;10.27;;;8.10;;
5890;SDS011;2971;52.420;7.080;2023-04-28T07:48:21;11.17;;;8.77;;
5890;SDS011;2971;52.420;7.080;2023-04-28T07:50:46;11.27;;;8.97;;
5890;SDS011;2971;52.420;7.080;2023-04-28T07:53:12;11.20;;;9.30;;
5890;SDS011;2971;52.420;7.080;2023-04-28T07:55:37;11.13;;;8.70;;
5890;SDS011;2971;52.420;7.080;2023-04-28T07:58:05;11.10;;;8.80;;
5890;SDS011;2971;52.420;7.080;2023-04-28T08:00:31;11.13;;;9.17;;
5890;SDS011;2971;52.420;7.080;2023-04-28T08:02:57;11.97;;;9.50;;
5890;SDS011;2971;52.420;7.080;2023-04-28T08:05:22;12.70;;;9.80;;
5890;SDS011;2971;52.420;7.080;2023-04-28T08:07:47;12.30;;;10.07;;
5890;SDS011;2971;52.420;7.080;2023-04-28T08:10:13;10.60;;;9.50;;
5890;SDS011;2971;52.420;7.080;2023-04-28T08:12:38;12.33;;;9.80;;
5890;SDS011;2971;52.420;7.080;2023-04-28T08:15:05;14.67;;;10.70;;
5890;SDS011;2971;52.420;7.080;2023-04-28T08:17:31;13.87;;;10.70;;
5890;SDS011;2971;52.420;7.080;2023-04-28T08:19:56;11.83;;;10.23;;
5890;SDS011;2971;52.420;7.080;2023-04-28T08:22:22;13.13;;;11.00;;
5890;SDS011;2971;52.420;7.080;2023-04-28T08:24:48;12.23;;;10.73;;
5890;SDS011;2971;52.420;7.080;2023-04-28T08:27:13;14.33;;;10.50;;
5890;SDS011;2971;52.420;7.080;2023-04-28T08:29:38;13.80;;;11.20;;
5890;SDS011;2971;52.420;7.080;2023-04-28T08:32:04;13.83;;;11.20;;
5890;SDS011;2971;52.420;7.080;2023-04-28T08:34:30;15.17;;;11.00;;
5890;SDS011;2971;52.420;7.080;2023-04-28T08:36:56;14.93;;;10.97;;
5890;SDS011;2971;52.420;7.080;2023-04-28T08:39:22;14.47;;;11.50;;
5890;SDS011;2971;52.420;7.080;2023-04-28T08:41:50;13.47;;;11.17;;
5890;SDS011;2971;52.420;7.080;2023-04-28T08:44:16;12.53;;;11.23;;
5890;SDS011;2971;52.420;7.080;2023-04-28T08:46:43;13.97;;;11.70;;
5890;SDS011;2971;52.420;7.080;2023-04-28T08:49:16;12.87;;;11.57;;
5890;SDS011;2971;52.420;7.080;2023-04-28T08:51:48;14.77;;;11.67;;
5890;SDS011;2971;52.420;7.080;2023-04-28T08:54:15;12.50;;;10.47;;
5890;SDS011;2971;52.420;7.080;2023-04-28T08:56:41;11.63;;;10.43;;
5890;SDS011;2971;52.420;7.080;2023-04-28T08:59:10;14.53;;;10.83;;
5890;SDS011;2971;52.420;7.080;2023-04-28T09:01:36;12.20;;;10.87;;
5890;SDS011;2971;52.420;7.080;2023-04-28T09:04:02;13.83;;;11.93;;
5890;SDS011;2971;52.420;7.080;2023-04-28T09:06:31;15.07;;;11.50;;
5890;SDS011;2971;52.420;7.080;2023-04-28T09:09:16;12.47;;;11.17;;
5890;SDS011;2971;52.420;7.080;2023-04-28T09:11:53;12.97;;;11.17;;
5890;SDS011;2971;52.420;7.080;2023-04-28T09:14:21;12.80;;;11.03;;
5890;SDS011;2971;52.420;7.080;2023-04-28T09:16:47;12.53;;;10.80;;
5890;SDS011;2971;52.420;7.080;2023-04-28T09:19:13;14.60;;;11.43;;
5890;SDS011;2971;52.420;7.080;2023-04-28T09:26:57;12.30;;;11.03;;
5890;SDS011;2971;52.420;7.080;2023-04-28T09:29:27;13.27;;;11.57;;
5890;SDS011;2971;52.420;7.080;2023-04-28T09:31:53;13.93;;;12.30;;
5890;SDS011;2971;52.420;7.080;2023-04-28T09:34:21;14.70;;;11.70;;
5890;SDS011;2971;52.420;7.080;2023-04-28T09:36:47;12.40;;;11.10;;
5890;SDS011;2971;52.420;7.080;2023-04-28T09:39:12;13.17;;;11.43;;
5890;SDS011;2971;52.420;7.080;2023-04-28T09:41:38;12.87;;;11.47;;
5890;SDS011;2971;52.420;7.080;2023-04-28T09:44:09;13.57;;;11.50;;
5890;SDS011;2971;52.420;7.080;2023-04-28T09:46:34;12.73;;;11.40;;
5890;SDS011;2971;52.420;7.080;2023-04-28T09:49:00;13.07;;;11.33;;
5890;SDS011;2971;52.420;7.080;2023-04-28T09:51:26;13.27;;;10.70;;
5890;SDS011;2971;52.420;7.080;2023-04-28T09:53:52;14.90;;;11.03;;
5890;SDS011;2971;52.420;7.080;2023-04-28T09:56:20;11.60;;;9.87;;
5890;SDS011;2971;52.420;7.080;2023-04-28T09:58:46;12.73;;;10.70;;
5890;SDS011;2971;52.420;7.080;2023-04-28T10:01:12;13.30;;;10.60;;
5890;SDS011;2971;52.420;7.080;2023-04-28T10:03:38;15.00;;;10.57;;
5890;SDS011;2971;52.420;7.080;2023-04-28T10:06:05;12.10;;;9.07;;
5890;SDS011;2971;52.420;7.080;2023-04-28T10:08:31;10.60;;;9.20;;
5890;SDS011;2971;52.420;7.080;2023-04-28T10:10:57;15.33;;;9.80;;
5890;SDS011;2971;52.420;7.080;2023-04-28T10:13:23;11.50;;;10.00;;
5890;SDS011;2971;52.420;7.080;2023-04-28T10:15:49;12.53;;;11.20;;
5890;SDS011;2971;52.420;7.080;2023-04-28T10:18:15;11.27;;;9.20;;
5890;SDS011;2971;52.420;7.080;2023-04-28T10:20:42;12.00;;;9.50;;
5890;SDS011;2971;52.420;7.080;2023-04-28T10:25:49;12.63;;;8.33;;
5890;SDS011;2971;52.420;7.080;2023-04-28T10:28:19;11.33;;;9.10;;
5890;SDS011;2971;52.420;7.080;2023-04-28T10:33:33;11.53;;;8.60;;
5890;SDS011;2971;52.420;7.080;2023-04-28T10:35:59;11.23;;;8.40;;
5890;SDS011;2971;52.420;7.080;2023-04-28T10:38:24;11.10;;;8.00;;
5890;SDS011;2971;52.420;7.080;2023-04-28T10:40:50;9.97;;;7.80;;
5890;SDS011;2971;52.420;7.080;2023-04-28T10:56:09;15.07;;;8.23;;
5890;SDS011;2971;52.420;7.080;2023-04-28T10:58:47;10.53;;;8.53;;
5890;SDS011;2971;52.420;7.080;2023-04-28T11:06:27;10.03;;;8.00;;
5890;SDS011;2971;52.420;7.080;2023-04-28T11:08:56;9.87;;;8.67;;
5890;SDS011;2971;52.420;7.080;2023-04-28T11:11:24;9.80;;;8.57;;
5890;SDS011;2971;52.420;7.080;2023-04-28T11:13:50;11.83;;;8.50;;
5890;SDS011;2971;52.420;7.080;2023-04-28T11:16:21;10.47;;;8.10;;
5890;SDS011;2971;52.420;7.080;2023-04-28T11:18:55;12.83;;;8.10;;
5890;SDS011;2971;52.420;7.080;2023-04-28T11:21:24;10.47;;;8.43;;
5890;SDS011;2971;52.420;7.080;2023-04-28T11:23:52;11.50;;;8.90;;
5890;SDS011;2971;52.420;7.080;2023-04-28T11:26:18;12.47;;;8.97;;
5890;SDS011;2971;52.420;7.080;2023-04-28T11:28:51;10.27;;;9.10;;
5890;SDS011;2971;52.420;7.080;2023-04-28T11:31:21;12.47;;;9.30;;
5890;SDS011;2971;52.420;7.080;2023-04-28T11:33:49;15.10;;;9.27;;
5890;SDS011;2971;52.420;7.080;2023-04-28T11:36:36;11.43;;;9.57;;
5890;SDS011;2971;52.420;7.080;2023-04-28T11:39:03;12.90;;;9.47;;
5890;SDS011;2971;52.420;7.080;2023-04-28T11:41:36;11.40;;;9.37;;
5890;SDS011;2971;52.420;7.080;2023-04-28T11:46:48;12.13;;;9.57;;
5890;SDS011;2971;52.420;7.080;2023-04-28T11:49:16;12.07;;;9.73;;
5890;SDS011;2971;52.420;7.080;2023-04-28T11:51:42;12.03;;;10.20;;
5890;SDS011;2971;52.420;7.080;2023-04-28T11:54:10;12.13;;;9.23;;
5890;SDS011;2971;52.420;7.080;2023-04-28T11:56:39;13.47;;;9.93;;
5890;SDS011;2971;52.420;7.080;2023-04-28T11:59:06;15.00;;;10.03;;
5890;SDS011;2971;52.420;7.080;2023-04-28T12:01:49;11.83;;;10.20;;
5890;SDS011;2971;52.420;7.080;2023-04-28T12:04:27;14.37;;;10.43;;
5890;SDS011;2971;52.420;7.080;2023-04-28T12:09:47;13.93;;;10.40;;
5890;SDS011;2971;52.420;7.080;2023-04-28T12:12:33;14.97;;;11.97;;
5890;SDS011;2971;52.420;7.080;2023-04-28T12:15:02;14.60;;;11.20;;
5890;SDS011;2971;52.420;7.080;2023-04-28T12:17:29;12.77;;;11.40;;
5890;SDS011;2971;52.420;7.080;2023-04-28T12:19:56;15.30;;;12.00;;
5890;SDS011;2971;52.420;7.080;2023-04-28T12:22:22;19.00;;;12.37;;
5890;SDS011;2971;52.420;7.080;2023-04-28T12:25:04;15.80;;;13.17;;
5890;SDS011;2971;52.420;7.080;2023-04-28T12:27:31;17.80;;;13.53;;
5890;SDS011;2971;52.420;7.080;2023-04-28T12:29:57;15.10;;;13.50;;
5890;SDS011;2971;52.420;7.080;2023-04-28T12:35:05;17.03;;;14.67;;
5890;SDS011;2971;52.420;7.080;2023-04-28T12:37:31;22.17;;;15.70;;
5890;SDS011;2971;52.420;7.080;2023-04-28T12:39:56;19.27;;;16.10;;
5890;SDS011;2971;52.420;7.080;2023-04-28T12:42:22;18.17;;;15.13;;
5890;SDS011;2971;52.420;7.080;2023-04-28T12:44:48;18.67;;;16.73;;
5890;SDS011;2971;52.420;7.080;2023-04-28T12:47:14;20.70;;;16.97;;
5890;SDS011;2971;52.420;7.080;2023-04-28T12:49:40;19.00;;;17.07;;
5890;SDS011;2971;52.420;7.080;2023-04-28T12:52:06;23.10;;;19.80;;
5890;SDS011;2971;52.420;7.080;2023-04-28T12:54:32;22.53;;;20.13;;
5890;SDS011;2971;52.420;7.080;2023-04-28T12:56:58;24.17;;;21.87;;
5890;SDS011;2971;52.420;7.080;2023-04-28T12:59:23;24.47;;;21.97;;
5890;SDS011;2971;52.420;7.080;2023-04-28T13:01:49;28.13;;;25.30;;
5890;SDS011;2971;52.420;7.080;2023-04-28T13:04:15;29.43;;;26.47;;
5890;SDS011;2971;52.420;7.080;2023-04-28T13:06:41;29.50;;;26.70;;
5890;SDS011;2971;52.420;7.080;2023-04-28T13:09:08;28.90;;;26.10;;
5890;SDS011;2971;52.420;7.080;2023-04-28T13:11:35;28.97;;;26.37;;
5890;SDS011;2971;52.420;7.080;2023-04-28T13:14:01;32.47;;;29.47;;
5890;SDS011;2971;52.420;7.080;2023-04-28T13:16:27;34.23;;;31.03;;
5890;SDS011;2971;52.420;7.080;2023-04-28T13:18:53;34.40;;;31.27;;
5890;SDS011;2971;52.420;7.080;2023-04-28T13:21:20;34.47;;;31.23;;
5890;SDS011;2971;52.420;7.080;2023-04-28T13:23:46;36.40;;;33.10;;
5890;SDS011;2971;52.420;7.080;2023-04-28T13:26:11;36.07;;;32.97;;
5890;SDS011;2971;52.420;7.080;2023-04-28T13:28:37;36.80;;;33.60;;
5890;SDS011;2971;52.420;7.080;2023-04-28T13:31:03;38.93;;;35.50;;
5890;SDS011;2971;52.420;7.080;2023-04-28T13:33:28;39.87;;;36.27;;
5890;SDS011;2971;52.420;7.080;2023-04-28T13:35:58;42.17;;;38.57;;
5890;SDS011;2971;52.420;7.080;2023-04-28T13:38:23;41.80;;;37.90;;
5890;SDS011;2971;52.420;7.080;2023-04-28T13:40:50;41.80;;;38.00;;
5890;SDS011;2971;52.420;7.080;2023-04-28T13:43:15;44.83;;;40.63;;
5890;SDS011;2971;52.420;7.080;2023-04-28T13:45:41;43.50;;;39.60;;
5890;SDS011;2971;52.420;7.080;2023-04-28T13:48:06;45.67;;;41.47;;
5890;SDS011;2971;52.420;7.080;2023-04-28T13:50:32;45.50;;;41.53;;
5890;SDS011;2971;52.420;7.080;2023-04-28T13:52:57;43.20;;;39.20;;
5890;SDS011;2971;52.420;7.080;2023-04-28T13:55:23;40.50;;;36.80;;
5890;SDS011;2971;52.420;7.080;2023-04-28T13:57:52;41.53;;;37.60;;
5890;SDS011;2971;52.420;7.080;2023-04-28T14:00:20;38.40;;;35.10;;
5890;SDS011;2971;52.420;7.080;2023-04-28T14:02:48;38.30;;;34.80;;
5890;SDS011;2971;52.420;7.080;2023-04-28T14:05:15;37.93;;;34.50;;
5890;SDS011;2971;52.420;7.080;2023-04-28T14:07:43;37.37;;;33.97;;
5890;SDS011;2971;52.420;7.080;2023-04-28T14:10:10;37.63;;;34.03;;
5890;SDS011;2971;52.420;7.080;2023-04-28T14:12:36;39.30;;;35.70;;
5890;SDS011;2971;52.420;7.080;2023-04-28T14:15:02;40.43;;;36.53;;
5890;SDS011;2971;52.420;7.080;2023-04-28T14:17:29;38.90;;;35.30;;
5890;SDS011;2971;52.420;7.080;2023-04-28T14:19:54;37.80;;;34.10;;
5890;SDS011;2971;52.420;7.080;2023-04-28T14:22:20;38.10;;;34.30;;
5890;SDS011;2971;52.420;7.080;2023-04-28T14:24:45;37.33;;;33.33;;
5890;SDS011;2971;52.420;7.080;2023-04-28T14:27:11;35.53;;;31.70;;
5890;SDS011;2971;52.420;7.080;2023-04-28T14:29:37;37.47;;;33.37;;
5890;SDS011;2971;52.420;7.080;2023-04-28T14:32:03;42.90;;;38.60;;
5890;SDS011;2971;52.420;7.080;2023-04-28T14:34:30;41.13;;;36.73;;
5890;SDS011;2971;52.420;7.080;2023-04-28T14:36:56;42.10;;;38.00;;
5890;SDS011;2971;52.420;7.080;2023-04-28T14:39:21;44.97;;;40.97;;
5890;SDS011;2971;52.420;7.080;2023-04-28T14:41:47;40.83;;;36.73;;
5890;SDS011;2971;52.420;7.080;2023-04-28T14:44:12;40.83;;;36.77;;
5890;SDS011;2971;52.420;7.080;2023-04-28T14:46:38;38.83;;;35.23;;
5890;SDS011;2971;52.420;7.080;2023-04-28T14:49:03;38.10;;;34.43;;
5890;SDS011;2971;52.420;7.080;2023-04-28T14:51:30;34.97;;;31.67;;
5890;SDS011;2971;52.420;7.080;2023-04-28T14:53:55;34.93;;;31.47;;
5890;SDS011;2971;52.420;7.080;2023-04-28T14:56:21;34.00;;;30.90;;
5890;SDS011;2971;52.420;7.080;2023-04-28T14:58:47;31.63;;;28.73;;
5890;SDS011;2971;52.420;7.080;2023-04-28T15:01:13;31.87;;;28.83;;
5890;SDS011;2971;52.420;7.080;2023-04-28T15:03:38;32.77;;;29.80;;
5890;SDS011;2971;52.420;7.080;2023-04-28T15:06:04;30.90;;;28.20;;
5890;SDS011;2971;52.420;7.080;2023-04-28T15:08:31;26.80;;;24.40;;
5890;SDS011;2971;52.420;7.080;2023-04-28T15:10:56;26.50;;;24.10;;
5890;SDS011;2971;52.420;7.080;2023-04-28T15:13:22;26.63;;;24.13;;
5890;SDS011;2971;52.420;7.080;2023-04-28T15:15:51;24.90;;;22.73;;
5890;SDS011;2971;52.420;7.080;2023-04-28T15:18:17;22.30;;;20.23;;
5890;SDS011;2971;52.420;7.080;2023-04-28T15:20:42;23.00;;;20.83;;
5890;SDS011;2971;52.420;7.080;2023-04-28T15:23:08;19.73;;;18.03;;
5890;SDS011;2971;52.420;7.080;2023-04-28T15:25:34;18.27;;;16.70;;
5890;SDS011;2971;52.420;7.080;2023-04-28T15:28:00;18.40;;;16.70;;
5890;SDS011;2971;52.420;7.080;2023-04-28T15:30:27;18.60;;;16.90;;
5890;SDS011;2971;52.420;7.080;2023-04-28T15:32:53;19.40;;;17.60;;